sensor_id;sensor_type;location;lat;lon;timestamp;temperature;humidity
22383;DHT22;11359;45.802;13.530;2023-03-01T00:00:28;14.50;30.80
22383;DHT22;11359;45.802;13.530;2023-03-01T00:02:54;14.50;30.90
22383;DHT22;11359;45.802;13.530;2023-03-01T00:05:20;14.50;31.00
22383;DHT22;11359;45.802;13.530;2023-03-01T00:07:47;14.40;31.10
22383;DHT22;11359;45.802;13.530;2023-03-01T00:10:12;14.40;31.10
22383;DHT22;11359;45.802;13.530;2023-03-01T00:12:38;14.40;31.10
22383;DHT22;11359;45.802;13.530;2023-03-01T00:15:04;14.30;31.00
22383;DHT22;11359;45.802;13.530;2023-03-01T00:17:30;14.30;31.00
22383;DHT22;11359;45.802;13.530;2023-03-01T00:19:59;14.20;31.10
22383;DHT22;11359;45.802;13.530;2023-03-01T00:22:26;14.10;31.20
22383;DHT22;11359;45.802;13.530;2023-03-01T00:24:54;14.10;31.30
22383;DHT22;11359;45.802;13.530;2023-03-01T00:27:20;14.10;31.30
22383;DHT22;11359;45.802;13.530;2023-03-01T00:29:46;14.00;31.40
22383;DHT22;11359;45.802;13.530;2023-03-01T00:32:12;14.00;31.50
22383;DHT22;11359;45.802;13.530;2023-03-01T00:34:38;13.90;31.50
22383;DHT22;11359;45.802;13.530;2023-03-01T00:37:07;13.90;31.50
22383;DHT22;11359;45.802;13.530;2023-03-01T00:39:33;13.80;31.50
22383;DHT22;11359;45.802;13.530;2023-03-01T00:41:59;13.80;31.60
22383;DHT22;11359;45.802;13.530;2023-03-01T00:44:24;13.70;31.60
22383;DHT22;11359;45.802;13.530;2023-03-01T00:46:50;13.70;31.70
22383;DHT22;11359;45.802;13.530;2023-03-01T00:49:16;13.60;31.70
22383;DHT22;11359;45.802;13.530;2023-03-01T00:51:41;13.60;31.80
22383;DHT22;11359;45.802;13.530;2023-03-01T00:54:08;13.50;31.80
22383;DHT22;11359;45.802;13.530;2023-03-01T00:56:34;13.50;31.90
22383;DHT22;11359;45.802;13.530;2023-03-01T00:59:00;13.50;32.10
22383;DHT22;11359;45.802;13.530;2023-03-01T01:01:29;13.40;32.10
22383;DHT22;11359;45.802;13.530;2023-03-01T01:06:29;13.40;32.10
22383;DHT22;11359;45.802;13.530;2023-03-01T01:08:56;13.30;32.10
22383;DHT22;11359;45.802;13.530;2023-03-01T01:11:24;13.30;32.20
22383;DHT22;11359;45.802;13.530;2023-03-01T01:13:50;13.20;32.20
22383;DHT22;11359;45.802;13.530;2023-03-01T01:16:18;13.20;32.30
22383;DHT22;11359;45.802;13.530;2023-03-01T01:18:45;13.20;32.40
22383;DHT22;11359;45.802;13.530;2023-03-01T01:21:13;13.10;32.40
22383;DHT22;11359;45.802;13.530;2023-03-01T01:23:39;13.10;32.40
22383;DHT22;11359;45.802;13.530;2023-03-01T01:26:27;13.00;32.50
22383;DHT22;11359;45.802;13.530;2023-03-01T01:28:53;13.00;32.60
22383;DHT22;11359;45.802;13.530;2023-03-01T01:31:19;12.90;32.60
22383;DHT22;11359;45.802;13.530;2023-03-01T01:33:46;12.90;32.80
22383;DHT22;11359;45.802;13.530;2023-03-01T01:36:12;12.90;32.80
22383;DHT22;11359;45.802;13.530;2023-03-01T01:38:38;12.80;32.80
22383;DHT22;11359;45.802;13.530;2023-03-01T01:41:05;12.80;32.80
22383;DHT22;11359;45.802;13.530;2023-03-01T01:43:36;12.80;32.90
22383;DHT22;11359;45.802;13.530;2023-03-01T01:46:32;12.80;33.10
22383;DHT22;11359;45.802;13.530;2023-03-01T01:49:51;12.80;33.00
22383;DHT22;11359;45.802;13.530;2023-03-01T01:52:24;12.70;33.00
22383;DHT22;11359;45.802;13.530;2023-03-01T01:57:51;12.60;33.10
22383;DHT22;11359;45.802;13.530;2023-03-01T02:00:25;12.60;33.20
22383;DHT22;11359;45.802;13.530;2023-03-01T02:02:56;12.50;33.30
22383;DHT22;11359;45.802;13.530;2023-03-01T02:05:49;12.50;33.40
22383;DHT22;11359;45.802;13.530;2023-03-01T02:08:19;12.50;33.40
22383;DHT22;11359;45.802;13.530;2023-03-01T02:10:45;12.50;33.50
22383;DHT22;11359;45.802;13.530;2023-03-01T02:13:12;12.40;33.50
22383;DHT22;11359;45.802;13.530;2023-03-01T02:15:39;12.40;33.50
22383;DHT22;11359;45.802;13.530;2023-03-01T02:18:07;12.40;33.60
22383;DHT22;11359;45.802;13.530;2023-03-01T02:20:43;12.40;33.70
22383;DHT22;11359;45.802;13.530;2023-03-01T02:23:11;12.30;33.60
22383;DHT22;11359;45.802;13.530;2023-03-01T02:30:34;12.30;33.90
22383;DHT22;11359;45.802;13.530;2023-03-01T02:33:03;12.20;33.90
22383;DHT22;11359;45.802;13.530;2023-03-01T02:35:35;12.20;33.90
22383;DHT22;11359;45.802;13.530;2023-03-01T02:38:03;12.20;34.10
22383;DHT22;11359;45.802;13.530;2023-03-01T02:40:34;12.20;34.10
22383;DHT22;11359;45.802;13.530;2023-03-01T02:43:01;12.20;34.10
22383;DHT22;11359;45.802;13.530;2023-03-01T02:45:29;12.10;34.20
22383;DHT22;11359;45.802;13.530;2023-03-01T02:47:56;12.10;34.20
22383;DHT22;11359;45.802;13.530;2023-03-01T02:55:44;12.00;34.30
22383;DHT22;11359;45.802;13.530;2023-03-01T02:58:10;12.00;34.40
22383;DHT22;11359;45.802;13.530;2023-03-01T03:00:38;12.00;34.50
22383;DHT22;11359;45.802;13.530;2023-03-01T03:03:06;12.00;34.50
22383;DHT22;11359;45.802;13.530;2023-03-01T03:05:33;11.90;34.50
22383;DHT22;11359;45.802;13.530;2023-03-01T03:08:02;11.90;34.50
22383;DHT22;11359;45.802;13.530;2023-03-01T03:10:34;11.90;34.60
22383;DHT22;11359;45.802;13.530;2023-03-01T03:13:06;11.90;34.60
22383;DHT22;11359;45.802;13.530;2023-03-01T03:15:33;11.90;34.70
22383;DHT22;11359;45.802;13.530;2023-03-01T03:18:03;11.80;34.70
22383;DHT22;11359;45.802;13.530;2023-03-01T03:20:30;11.80;34.70
22383;DHT22;11359;45.802;13.530;2023-03-01T03:22:56;11.80;34.80
22383;DHT22;11359;45.802;13.530;2023-03-01T03:25:27;11.80;34.80
22383;DHT22;11359;45.802;13.530;2023-03-01T03:27:54;11.80;34.90
22383;DHT22;11359;45.802;13.530;2023-03-01T03:30:25;11.80;35.00
22383;DHT22;11359;45.802;13.530;2023-03-01T03:32:51;11.80;35.00
22383;DHT22;11359;45.802;13.530;2023-03-01T03:35:23;11.70;34.90
22383;DHT22;11359;45.802;13.530;2023-03-01T03:37:50;11.70;35.00
22383;DHT22;11359;45.802;13.530;2023-03-01T03:40:31;11.70;35.00
22383;DHT22;11359;45.802;13.530;2023-03-01T03:42:58;11.70;35.10
22383;DHT22;11359;45.802;13.530;2023-03-01T03:45:24;11.70;35.20
22383;DHT22;11359;45.802;13.530;2023-03-01T03:47:49;11.70;35.10
22383;DHT22;11359;45.802;13.530;2023-03-01T03:50:17;11.70;35.20
22383;DHT22;11359;45.802;13.530;2023-03-01T03:52:43;11.60;35.20
22383;DHT22;11359;45.802;13.530;2023-03-01T03:55:10;11.60;35.20
22383;DHT22;11359;45.802;13.530;2023-03-01T03:57:37;11.60;35.20
22383;DHT22;11359;45.802;13.530;2023-03-01T04:00:04;11.60;35.30
22383;DHT22;11359;45.802;13.530;2023-03-01T04:02:31;11.60;35.40
22383;DHT22;11359;45.802;13.530;2023-03-01T04:04:57;11.60;35.40
22383;DHT22;11359;45.802;13.530;2023-03-01T04:07:23;11.50;35.50
22383;DHT22;11359;45.802;13.530;2023-03-01T04:09:48;11.60;35.50
22383;DHT22;11359;45.802;13.530;2023-03-01T04:12:15;11.50;35.50
22383;DHT22;11359;45.802;13.530;2023-03-01T04:14:45;11.50;35.50
22383;DHT22;11359;45.802;13.530;2023-03-01T04:17:11;11.50;35.60
22383;DHT22;11359;45.802;13.530;2023-03-01T04:19:38;11.50;35.60
22383;DHT22;11359;45.802;13.530;2023-03-01T04:22:04;11.50;35.80
22383;DHT22;11359;45.802;13.530;2023-03-01T04:24:35;11.50;35.80
22383;DHT22;11359;45.802;13.530;2023-03-01T04:27:01;11.40;35.80
22383;DHT22;11359;45.802;13.530;2023-03-01T04:29:28;11.40;35.80
22383;DHT22;11359;45.802;13.530;2023-03-01T04:31:53;11.50;35.90
22383;DHT22;11359;45.802;13.530;2023-03-01T04:34:19;11.40;35.90
22383;DHT22;11359;45.802;13.530;2023-03-01T04:36:45;11.40;35.90
22383;DHT22;11359;45.802;13.530;2023-03-01T04:39:11;11.40;36.00
22383;DHT22;11359;45.802;13.530;2023-03-01T04:41:40;11.40;36.00
22383;DHT22;11359;45.802;13.530;2023-03-01T04:44:06;11.40;36.00
22383;DHT22;11359;45.802;13.530;2023-03-01T04:46:35;11.40;36.10
22383;DHT22;11359;45.802;13.530;2023-03-01T04:49:02;11.40;36.20
22383;DHT22;11359;45.802;13.530;2023-03-01T04:51:28;11.30;36.10
22383;DHT22;11359;45.802;13.530;2023-03-01T04:53:54;11.30;36.10
22383;DHT22;11359;45.802;13.530;2023-03-01T04:56:20;11.30;36.20
22383;DHT22;11359;45.802;13.530;2023-03-01T04:58:49;11.30;36.20
22383;DHT22;11359;45.802;13.530;2023-03-01T05:01:19;11.30;36.30
22383;DHT22;11359;45.802;13.530;2023-03-01T05:03:49;11.30;36.40
22383;DHT22;11359;45.802;13.530;2023-03-01T05:06:16;11.20;36.50
22383;DHT22;11359;45.802;13.530;2023-03-01T05:08:43;11.20;36.50
22383;DHT22;11359;45.802;13.530;2023-03-01T05:11:10;11.20;36.50
22383;DHT22;11359;45.802;13.530;2023-03-01T05:13:37;11.20;36.60
22383;DHT22;11359;45.802;13.530;2023-03-01T05:16:04;11.30;36.60
22383;DHT22;11359;45.802;13.530;2023-03-01T05:18:32;11.20;36.70
22383;DHT22;11359;45.802;13.530;2023-03-01T05:21:05;11.20;36.80
22383;DHT22;11359;45.802;13.530;2023-03-01T05:23:32;11.20;36.90
22383;DHT22;11359;45.802;13.530;2023-03-01T05:25:59;11.30;36.90
22383;DHT22;11359;45.802;13.530;2023-03-01T05:28:26;11.30;37.00
22383;DHT22;11359;45.802;13.530;2023-03-01T05:30:54;11.30;36.90
22383;DHT22;11359;45.802;13.530;2023-03-01T05:33:19;11.30;37.00
22383;DHT22;11359;45.802;13.530;2023-03-01T05:35:48;11.30;37.00
22383;DHT22;11359;45.802;13.530;2023-03-01T05:38:15;11.30;37.10
22383;DHT22;11359;45.802;13.530;2023-03-01T05:40:46;11.30;37.10
22383;DHT22;11359;45.802;13.530;2023-03-01T05:43:14;11.40;37.10
22383;DHT22;11359;45.802;13.530;2023-03-01T05:45:41;11.40;37.20
22383;DHT22;11359;45.802;13.530;2023-03-01T05:48:08;11.40;37.20
22383;DHT22;11359;45.802;13.530;2023-03-01T05:50:40;11.50;37.20
22383;DHT22;11359;45.802;13.530;2023-03-01T05:53:16;11.50;37.20
22383;DHT22;11359;45.802;13.530;2023-03-01T05:55:43;11.60;37.20
22383;DHT22;11359;45.802;13.530;2023-03-01T05:58:14;11.60;37.40
22383;DHT22;11359;45.802;13.530;2023-03-01T06:00:41;11.60;37.20
22383;DHT22;11359;45.802;13.530;2023-03-01T06:03:09;11.70;37.20
22383;DHT22;11359;45.802;13.530;2023-03-01T06:05:35;11.70;37.10
22383;DHT22;11359;45.802;13.530;2023-03-01T06:08:01;11.80;37.20
22383;DHT22;11359;45.802;13.530;2023-03-01T06:10:27;11.80;37.10
22383;DHT22;11359;45.802;13.530;2023-03-01T06:12:53;11.80;37.10
22383;DHT22;11359;45.802;13.530;2023-03-01T06:15:19;11.90;37.10
22383;DHT22;11359;45.802;13.530;2023-03-01T06:17:46;11.90;37.00
22383;DHT22;11359;45.802;13.530;2023-03-01T06:20:20;12.00;37.10
22383;DHT22;11359;45.802;13.530;2023-03-01T06:22:46;12.10;37.00
22383;DHT22;11359;45.802;13.530;2023-03-01T06:25:14;12.10;36.90
22383;DHT22;11359;45.802;13.530;2023-03-01T06:27:41;12.20;36.90
22383;DHT22;11359;45.802;13.530;2023-03-01T06:30:09;12.30;36.90
22383;DHT22;11359;45.802;13.530;2023-03-01T06:32:36;12.30;36.80
22383;DHT22;11359;45.802;13.530;2023-03-01T06:35:03;12.40;36.70
22383;DHT22;11359;45.802;13.530;2023-03-01T06:37:29;12.50;36.60
22383;DHT22;11359;45.802;13.530;2023-03-01T06:39:55;12.50;36.30
22383;DHT22;11359;45.802;13.530;2023-03-01T06:42:21;12.60;36.30
22383;DHT22;11359;45.802;13.530;2023-03-01T06:44:47;12.70;36.30
22383;DHT22;11359;45.802;13.530;2023-03-01T06:47:15;12.70;36.20
22383;DHT22;11359;45.802;13.530;2023-03-01T06:49:42;12.80;36.00
22383;DHT22;11359;45.802;13.530;2023-03-01T06:52:07;12.90;36.10
22383;DHT22;11359;45.802;13.530;2023-03-01T06:54:33;13.00;36.10
22383;DHT22;11359;45.802;13.530;2023-03-01T06:56:58;13.00;35.90
22383;DHT22;11359;45.802;13.530;2023-03-01T06:59:24;13.10;35.90
22383;DHT22;11359;45.802;13.530;2023-03-01T07:01:50;13.20;35.70
22383;DHT22;11359;45.802;13.530;2023-03-01T07:04:15;13.30;35.20
22383;DHT22;11359;45.802;13.530;2023-03-01T07:06:44;13.30;35.30
22383;DHT22;11359;45.802;13.530;2023-03-01T07:09:10;13.40;35.20
22383;DHT22;11359;45.802;13.530;2023-03-01T07:11:36;13.50;35.30
22383;DHT22;11359;45.802;13.530;2023-03-01T07:14:01;13.60;35.20
22383;DHT22;11359;45.802;13.530;2023-03-01T07:16:27;13.60;35.00
22383;DHT22;11359;45.802;13.530;2023-03-01T07:18:53;13.70;35.10
22383;DHT22;11359;45.802;13.530;2023-03-01T07:21:18;13.80;35.20
22383;DHT22;11359;45.802;13.530;2023-03-01T07:23:47;13.80;34.90
22383;DHT22;11359;45.802;13.530;2023-03-01T07:26:13;13.90;34.80
22383;DHT22;11359;45.802;13.530;2023-03-01T07:28:39;14.00;34.60
22383;DHT22;11359;45.802;13.530;2023-03-01T07:31:06;14.00;34.70
22383;DHT22;11359;45.802;13.530;2023-03-01T07:33:32;14.10;34.30
22383;DHT22;11359;45.802;13.530;2023-03-01T07:36:00;14.10;34.10
22383;DHT22;11359;45.802;13.530;2023-03-01T07:38:27;14.20;34.10
22383;DHT22;11359;45.802;13.530;2023-03-01T07:41:00;14.20;34.00
22383;DHT22;11359;45.802;13.530;2023-03-01T07:43:28;14.30;34.00
22383;DHT22;11359;45.802;13.530;2023-03-01T07:45:54;14.30;33.90
22383;DHT22;11359;45.802;13.530;2023-03-01T07:48:20;14.40;34.10
22383;DHT22;11359;45.802;13.530;2023-03-01T07:50:45;14.50;34.30
22383;DHT22;11359;45.802;13.530;2023-03-01T07:53:11;14.60;34.20
22383;DHT22;11359;45.802;13.530;2023-03-01T07:55:37;14.60;34.10
22383;DHT22;11359;45.802;13.530;2023-03-01T07:58:03;14.70;33.80
22383;DHT22;11359;45.802;13.530;2023-03-01T08:00:29;14.80;33.50
22383;DHT22;11359;45.802;13.530;2023-03-01T08:02:59;14.90;33.70
22383;DHT22;11359;45.802;13.530;2023-03-01T08:05:24;14.90;33.90
22383;DHT22;11359;45.802;13.530;2023-03-01T08:07:50;14.90;33.30
22383;DHT22;11359;45.802;13.530;2023-03-01T08:10:16;15.00;33.40
22383;DHT22;11359;45.802;13.530;2023-03-01T08:12:42;15.10;33.50
22383;DHT22;11359;45.802;13.530;2023-03-01T08:15:08;15.20;33.60
22383;DHT22;11359;45.802;13.530;2023-03-01T08:17:34;15.20;33.60
22383;DHT22;11359;45.802;13.530;2023-03-01T08:19:59;15.30;33.40
22383;DHT22;11359;45.802;13.530;2023-03-01T08:22:25;15.40;33.10
22383;DHT22;11359;45.802;13.530;2023-03-01T08:24:50;15.40;32.80
22383;DHT22;11359;45.802;13.530;2023-03-01T08:27:16;15.40;32.20
22383;DHT22;11359;45.802;13.530;2023-03-01T08:29:42;15.50;32.20
22383;DHT22;11359;45.802;13.530;2023-03-01T08:32:08;15.50;32.20
22383;DHT22;11359;45.802;13.530;2023-03-01T08:34:34;15.50;32.10
22383;DHT22;11359;45.802;13.530;2023-03-01T08:37:01;15.60;32.30
22383;DHT22;11359;45.802;13.530;2023-03-01T08:39:27;15.60;32.50
22383;DHT22;11359;45.802;13.530;2023-03-01T08:41:53;15.70;32.70
22383;DHT22;11359;45.802;13.530;2023-03-01T08:44:19;15.70;32.80
22383;DHT22;11359;45.802;13.530;2023-03-01T08:46:47;15.80;32.70
22383;DHT22;11359;45.802;13.530;2023-03-01T08:49:17;15.80;32.30
22383;DHT22;11359;45.802;13.530;2023-03-01T08:51:49;15.90;32.50
22383;DHT22;11359;45.802;13.530;2023-03-01T08:54:20;15.90;32.60
22383;DHT22;11359;45.802;13.530;2023-03-01T08:56:46;16.00;32.80
22383;DHT22;11359;45.802;13.530;2023-03-01T08:59:13;16.00;32.80
22383;DHT22;11359;45.802;13.530;2023-03-01T09:01:40;16.00;32.40
22383;DHT22;11359;45.802;13.530;2023-03-01T09:04:09;16.10;32.30
22383;DHT22;11359;45.802;13.530;2023-03-01T09:06:35;16.10;32.50
22383;DHT22;11359;45.802;13.530;2023-03-01T09:09:02;16.10;31.80
22383;DHT22;11359;45.802;13.530;2023-03-01T09:11:28;16.10;31.90
22383;DHT22;11359;45.802;13.530;2023-03-01T09:13:54;16.10;31.50
22383;DHT22;11359;45.802;13.530;2023-03-01T09:16:22;16.10;31.20
22383;DHT22;11359;45.802;13.530;2023-03-01T09:18:52;16.10;31.60
22383;DHT22;11359;45.802;13.530;2023-03-01T09:21:21;16.10;31.70
22383;DHT22;11359;45.802;13.530;2023-03-01T09:23:48;16.00;31.70
22383;DHT22;11359;45.802;13.530;2023-03-01T09:26:19;16.00;31.90
22383;DHT22;11359;45.802;13.530;2023-03-01T09:28:47;16.00;31.90
22383;DHT22;11359;45.802;13.530;2023-03-01T09:31:14;16.00;31.90
22383;DHT22;11359;45.802;13.530;2023-03-01T09:33:41;16.00;32.10
22383;DHT22;11359;45.802;13.530;2023-03-01T09:36:12;16.00;32.10
22383;DHT22;11359;45.802;13.530;2023-03-01T09:38:43;16.00;32.10
22383;DHT22;11359;45.802;13.530;2023-03-01T09:46:53;15.90;32.20
22383;DHT22;11359;45.802;13.530;2023-03-01T09:49:20;15.90;32.20
22383;DHT22;11359;45.802;13.530;2023-03-01T09:52:18;15.90;32.30
22383;DHT22;11359;45.802;13.530;2023-03-01T09:54:49;15.90;32.10
22383;DHT22;11359;45.802;13.530;2023-03-01T09:57:27;15.90;32.10
22383;DHT22;11359;45.802;13.530;2023-03-01T10:06:02;15.90;32.10
22383;DHT22;11359;45.802;13.530;2023-03-01T10:09:01;15.80;32.00
22383;DHT22;11359;45.802;13.530;2023-03-01T10:11:35;15.80;31.90
22383;DHT22;11359;45.802;13.530;2023-03-01T10:19:50;15.70;32.10
22383;DHT22;11359;45.802;13.530;2023-03-01T10:22:24;15.60;32.10
22383;DHT22;11359;45.802;13.530;2023-03-01T10:24:55;15.60;32.20
22383;DHT22;11359;45.802;13.530;2023-03-01T10:27:34;15.60;32.30
22383;DHT22;11359;45.802;13.530;2023-03-01T10:30:18;15.50;32.40
22383;DHT22;11359;45.802;13.530;2023-03-01T10:32:46;15.50;32.60
22383;DHT22;11359;45.802;13.530;2023-03-01T10:35:19;15.40;33.20
22383;DHT22;11359;45.802;13.530;2023-03-01T10:38:02;15.50;32.70
22383;DHT22;11359;45.802;13.530;2023-03-01T10:40:28;15.40;32.70
22383;DHT22;11359;45.802;13.530;2023-03-01T10:42:57;15.40;32.80
22383;DHT22;11359;45.802;13.530;2023-03-01T10:48:15;15.40;32.90
22383;DHT22;11359;45.802;13.530;2023-03-01T10:50:47;15.30;33.00
22383;DHT22;11359;45.802;13.530;2023-03-01T10:56:02;15.20;33.10
22383;DHT22;11359;45.802;13.530;2023-03-01T10:58:30;15.20;33.20
22383;DHT22;11359;45.802;13.530;2023-03-01T11:01:05;15.20;33.30
22383;DHT22;11359;45.802;13.530;2023-03-01T11:03:37;15.10;33.40
22383;DHT22;11359;45.802;13.530;2023-03-01T11:06:24;15.10;33.50
22383;DHT22;11359;45.802;13.530;2023-03-01T11:08:51;15.10;33.60
22383;DHT22;11359;45.802;13.530;2023-03-01T11:11:40;15.00;33.70
22383;DHT22;11359;45.802;13.530;2023-03-01T11:14:21;15.00;33.70
22383;DHT22;11359;45.802;13.530;2023-03-01T11:16:49;14.90;33.70
22383;DHT22;11359;45.802;13.530;2023-03-01T11:19:23;14.90;33.90
22383;DHT22;11359;45.802;13.530;2023-03-01T11:22:03;14.80;33.90
22383;DHT22;11359;45.802;13.530;2023-03-01T11:24:47;14.80;34.10
22383;DHT22;11359;45.802;13.530;2023-03-01T11:27:16;14.80;34.20
22383;DHT22;11359;45.802;13.530;2023-03-01T11:29:50;14.70;34.20
22383;DHT22;11359;45.802;13.530;2023-03-01T11:32:19;14.70;34.30
22383;DHT22;11359;45.802;13.530;2023-03-01T11:34:51;14.70;34.50
22383;DHT22;11359;45.802;13.530;2023-03-01T11:37:28;14.70;34.60
22383;DHT22;11359;45.802;13.530;2023-03-01T11:39:59;14.70;34.60
22383;DHT22;11359;45.802;13.530;2023-03-01T11:43:01;14.70;34.80
22383;DHT22;11359;45.802;13.530;2023-03-01T11:45:47;14.70;34.80
22383;DHT22;11359;45.802;13.530;2023-03-01T11:51:25;14.80;34.90
22383;DHT22;11359;45.802;13.530;2023-03-01T11:54:27;14.80;34.90
22383;DHT22;11359;45.802;13.530;2023-03-01T11:57:00;14.80;35.00
22383;DHT22;11359;45.802;13.530;2023-03-01T11:59:37;14.90;35.00
22383;DHT22;11359;45.802;13.530;2023-03-01T12:10:37;15.00;35.00
22383;DHT22;11359;45.802;13.530;2023-03-01T12:16:27;15.10;34.90
22383;DHT22;11359;45.802;13.530;2023-03-01T12:22:09;15.30;35.00
22383;DHT22;11359;45.802;13.530;2023-03-01T12:25:34;15.30;34.90
22383;DHT22;11359;45.802;13.530;2023-03-01T12:39:24;15.70;34.60
22383;DHT22;11359;45.802;13.530;2023-03-01T12:49:47;16.00;34.30
22383;DHT22;11359;45.802;13.530;2023-03-01T12:52:22;16.10;34.20
22383;DHT22;11359;45.802;13.530;2023-03-01T12:54:50;16.10;33.90
22383;DHT22;11359;45.802;13.530;2023-03-01T12:57:31;16.20;33.60
22383;DHT22;11359;45.802;13.530;2023-03-01T13:00:31;16.20;33.60
22383;DHT22;11359;45.802;13.530;2023-03-01T13:03:10;16.30;33.20
22383;DHT22;11359;45.802;13.530;2023-03-01T13:06:00;16.30;33.40
22383;DHT22;11359;45.802;13.530;2023-03-01T13:11:04;16.40;33.00
22383;DHT22;11359;45.802;13.530;2023-03-01T13:13:31;16.40;33.10
22383;DHT22;11359;45.802;13.530;2023-03-01T13:15:57;16.40;33.00
22383;DHT22;11359;45.802;13.530;2023-03-01T13:18:43;16.40;32.80
22383;DHT22;11359;45.802;13.530;2023-03-01T13:21:09;16.50;32.80
22383;DHT22;11359;45.802;13.530;2023-03-01T13:23:39;16.50;33.00
22383;DHT22;11359;45.802;13.530;2023-03-01T13:26:18;16.50;32.40
22383;DHT22;11359;45.802;13.530;2023-03-01T13:28:55;16.50;32.70
22383;DHT22;11359;45.802;13.530;2023-03-01T13:41:51;16.80;32.80
22383;DHT22;11359;45.802;13.530;2023-03-01T13:49:48;16.80;32.40
22383;DHT22;11359;45.802;13.530;2023-03-01T13:52:36;16.80;32.40
22383;DHT22;11359;45.802;13.530;2023-03-01T13:57:43;16.90;32.30
22383;DHT22;11359;45.802;13.530;2023-03-01T14:00:34;16.90;32.30
22383;DHT22;11359;45.802;13.530;2023-03-01T14:03:16;16.90;32.20
22383;DHT22;11359;45.802;13.530;2023-03-01T14:06:03;16.90;32.20
22383;DHT22;11359;45.802;13.530;2023-03-01T14:08:59;16.90;32.10
22383;DHT22;11359;45.802;13.530;2023-03-01T14:11:54;16.90;32.10
22383;DHT22;11359;45.802;13.530;2023-03-01T14:14:48;16.90;32.10
22383;DHT22;11359;45.802;13.530;2023-03-01T14:20:19;16.90;32.30
22383;DHT22;11359;45.802;13.530;2023-03-01T14:22:47;16.90;32.30
22383;DHT22;11359;45.802;13.530;2023-03-01T14:27:57;16.90;32.10
22383;DHT22;11359;45.802;13.530;2023-03-01T14:32:57;16.90;32.30
22383;DHT22;11359;45.802;13.530;2023-03-01T14:35:29;16.90;32.10
22383;DHT22;11359;45.802;13.530;2023-03-01T14:37:56;16.90;32.20
22383;DHT22;11359;45.802;13.530;2023-03-01T14:40:30;16.90;32.80
22383;DHT22;11359;45.802;13.530;2023-03-01T14:42:59;16.90;32.00
22383;DHT22;11359;45.802;13.530;2023-03-01T14:45:27;16.90;32.10
22383;DHT22;11359;45.802;13.530;2023-03-01T14:47:55;17.00;32.20
22383;DHT22;11359;45.802;13.530;2023-03-01T14:50:30;17.00;32.30
22383;DHT22;11359;45.802;13.530;2023-03-01T14:53:01;17.00;32.40
22383;DHT22;11359;45.802;13.530;2023-03-01T14:55:37;17.00;32.50
22383;DHT22;11359;45.802;13.530;2023-03-01T14:58:05;17.00;32.40
22383;DHT22;11359;45.802;13.530;2023-03-01T15:00:32;17.10;32.30
22383;DHT22;11359;45.802;13.530;2023-03-01T15:03:11;17.10;32.20
22383;DHT22;11359;45.802;13.530;2023-03-01T15:05:40;17.10;32.10
22383;DHT22;11359;45.802;13.530;2023-03-01T15:08:07;17.10;32.40
22383;DHT22;11359;45.802;13.530;2023-03-01T15:10:56;17.10;32.50
22383;DHT22;11359;45.802;13.530;2023-03-01T15:13:24;17.20;32.60
22383;DHT22;11359;45.802;13.530;2023-03-01T15:15:51;17.10;32.60
22383;DHT22;11359;45.802;13.530;2023-03-01T15:18:25;17.10;32.60
22383;DHT22;11359;45.802;13.530;2023-03-01T15:20:53;17.10;32.50
22383;DHT22;11359;45.802;13.530;2023-03-01T15:23:21;17.20;32.70
22383;DHT22;11359;45.802;13.530;2023-03-01T15:25:47;17.20;32.70
22383;DHT22;11359;45.802;13.530;2023-03-01T15:28:25;17.20;32.60
22383;DHT22;11359;45.802;13.530;2023-03-01T15:30:58;17.20;32.60
22383;DHT22;11359;45.802;13.530;2023-03-01T15:35:54;17.20;32.50
22383;DHT22;11359;45.802;13.530;2023-03-01T15:43:52;17.30;32.60
22383;DHT22;11359;45.802;13.530;2023-03-01T15:46:32;17.30;32.40
22383;DHT22;11359;45.802;13.530;2023-03-01T15:49:05;17.30;32.50
22383;DHT22;11359;45.802;13.530;2023-03-01T15:51:43;17.30;32.40
22383;DHT22;11359;45.802;13.530;2023-03-01T15:54:22;17.30;32.50
22383;DHT22;11359;45.802;13.530;2023-03-01T15:56:53;17.30;32.50
22383;DHT22;11359;45.802;13.530;2023-03-01T15:59:19;17.30;32.60
22383;DHT22;11359;45.802;13.530;2023-03-01T16:01:45;17.30;32.70
22383;DHT22;11359;45.802;13.530;2023-03-01T16:04:12;17.30;32.80
22383;DHT22;11359;45.802;13.530;2023-03-01T16:06:41;17.30;32.80
22383;DHT22;11359;45.802;13.530;2023-03-01T16:09:08;17.30;32.90
22383;DHT22;11359;45.802;13.530;2023-03-01T16:11:35;17.30;32.90
22383;DHT22;11359;45.802;13.530;2023-03-01T16:14:02;17.30;33.00
22383;DHT22;11359;45.802;13.530;2023-03-01T16:16:28;17.30;33.10
22383;DHT22;11359;45.802;13.530;2023-03-01T16:18:53;17.40;33.20
22383;DHT22;11359;45.802;13.530;2023-03-01T16:21:23;17.40;33.20
22383;DHT22;11359;45.802;13.530;2023-03-01T16:23:49;17.40;33.10
22383;DHT22;11359;45.802;13.530;2023-03-01T16:26:15;17.40;33.00
22383;DHT22;11359;45.802;13.530;2023-03-01T16:28:42;17.40;33.00
22383;DHT22;11359;45.802;13.530;2023-03-01T16:31:08;17.40;32.80
22383;DHT22;11359;45.802;13.530;2023-03-01T16:33:34;17.40;32.80
22383;DHT22;11359;45.802;13.530;2023-03-01T16:36:07;17.40;32.80
22383;DHT22;11359;45.802;13.530;2023-03-01T16:38:33;17.40;32.80
22383;DHT22;11359;45.802;13.530;2023-03-01T16:41:00;17.40;32.80
22383;DHT22;11359;45.802;13.530;2023-03-01T16:43:25;17.40;32.80
22383;DHT22;11359;45.802;13.530;2023-03-01T16:45:51;17.40;32.80
22383;DHT22;11359;45.802;13.530;2023-03-01T16:48:17;17.50;32.80
22383;DHT22;11359;45.802;13.530;2023-03-01T16:50:43;17.50;32.80
22383;DHT22;11359;45.802;13.530;2023-03-01T16:53:09;17.40;32.70
22383;DHT22;11359;45.802;13.530;2023-03-01T16:55:36;17.50;32.80
22383;DHT22;11359;45.802;13.530;2023-03-01T16:58:02;17.50;32.80
22383;DHT22;11359;45.802;13.530;2023-03-01T17:00:29;17.50;32.70
22383;DHT22;11359;45.802;13.530;2023-03-01T17:02:54;17.50;32.70
22383;DHT22;11359;45.802;13.530;2023-03-01T17:05:20;17.50;32.80
22383;DHT22;11359;45.802;13.530;2023-03-01T17:07:49;17.50;32.80
22383;DHT22;11359;45.802;13.530;2023-03-01T17:10:14;17.50;32.80
22383;DHT22;11359;45.802;13.530;2023-03-01T17:12:40;17.50;32.80
22383;DHT22;11359;45.802;13.530;2023-03-01T17:15:06;17.50;32.80
22383;DHT22;11359;45.802;13.530;2023-03-01T17:17:32;17.50;32.80
22383;DHT22;11359;45.802;13.530;2023-03-01T17:19:59;17.50;32.80
22383;DHT22;11359;45.802;13.530;2023-03-01T17:22:26;17.50;32.80
22383;DHT22;11359;45.802;13.530;2023-03-01T17:24:51;17.50;32.80